sensor_id;sensor_type;location;lat;lon;timestamp;P1;durP1;ratioP1;P2;durP2;ratioP2
60430;SDS011;46285;45.122;20.726;2023-06-04T00:07:17;10.55;;;4.05;;
60430;SDS011;46285;45.122;20.726;2023-06-04T00:17:19;11.93;;;4.55;;
60430;SDS011;46285;45.122;20.726;2023-06-04T00:27:20;9.07;;;4.28;;
60430;SDS011;46285;45.122;20.726;2023-06-04T00:37:24;11.68;;;5.00;;
60430;SDS011;46285;45.122;20.726;2023-06-04T00:47:26;10.13;;;5.17;;
60430;SDS011;46285;45.122;20.726;2023-06-04T00:57:27;11.82;;;4.68;;
60430;SDS011;46285;45.122;20.726;2023-06-04T01:07:28;9.65;;;4.93;;
60430;SDS011;46285;45.122;20.726;2023-06-04T01:17:37;11.20;;;4.95;;
60430;SDS011;46285;45.122;20.726;2023-06-04T01:27:39;8.85;;;4.95;;
60430;SDS011;46285;45.122;20.726;2023-06-04T01:37:41;10.85;;;5.45;;
60430;SDS011;46285;45.122;20.726;2023-06-04T01:47:42;10.20;;;4.90;;
60430;SDS011;46285;45.122;20.726;2023-06-04T01:57:43;9.77;;;5.07;;
60430;SDS011;46285;45.122;20.726;2023-06-04T02:07:45;10.95;;;4.28;;
60430;SDS011;46285;45.122;20.726;2023-06-04T02:17:46;13.95;;;4.57;;
60430;SDS011;46285;45.122;20.726;2023-06-04T02:27:48;10.48;;;4.72;;
60430;SDS011;46285;45.122;20.726;2023-06-04T02:37:49;11.00;;;5.03;;
60430;SDS011;46285;45.122;20.726;2023-06-04T02:47:50;12.57;;;5.10;;
60430;SDS011;46285;45.122;20.726;2023-06-04T02:57:51;8.75;;;5.38;;
60430;SDS011;46285;45.122;20.726;2023-06-04T03:07:53;10.48;;;5.72;;
60430;SDS011;46285;45.122;20.726;2023-06-04T03:17:54;11.82;;;6.88;;
60430;SDS011;46285;45.122;20.726;2023-06-04T03:27:55;14.60;;;7.05;;
60430;SDS011;46285;45.122;20.726;2023-06-04T03:37:57;9.90;;;6.40;;
60430;SDS011;46285;45.122;20.726;2023-06-04T03:47:59;12.25;;;7.40;;
60430;SDS011;46285;45.122;20.726;2023-06-04T03:58:02;9.77;;;6.88;;
60430;SDS011;46285;45.122;20.726;2023-06-04T04:08:04;11.32;;;6.90;;
60430;SDS011;46285;45.122;20.726;2023-06-04T04:18:07;13.23;;;7.43;;
60430;SDS011;46285;45.122;20.726;2023-06-04T04:28:09;15.30;;;8.93;;
60430;SDS011;46285;45.122;20.726;2023-06-04T04:38:12;12.27;;;7.45;;
60430;SDS011;46285;45.122;20.726;2023-06-04T04:48:20;11.07;;;7.75;;
60430;SDS011;46285;45.122;20.726;2023-06-04T04:58:21;9.80;;;5.65;;
60430;SDS011;46285;45.122;20.726;2023-06-04T05:08:22;11.93;;;6.50;;
60430;SDS011;46285;45.122;20.726;2023-06-04T05:18:23;9.95;;;5.40;;
60430;SDS011;46285;45.122;20.726;2023-06-04T05:28:25;8.23;;;4.70;;
60430;SDS011;46285;45.122;20.726;2023-06-04T05:38:26;10.70;;;5.03;;
60430;SDS011;46285;45.122;20.726;2023-06-04T05:48:31;9.55;;;4.38;;
60430;SDS011;46285;45.122;20.726;2023-06-04T05:58:32;10.23;;;4.10;;
60430;SDS011;46285;45.122;20.726;2023-06-04T06:08:34;10.20;;;4.18;;
60430;SDS011;46285;45.122;20.726;2023-06-04T06:18:35;13.05;;;4.05;;
60430;SDS011;46285;45.122;20.726;2023-06-04T06:28:37;13.57;;;3.67;;
60430;SDS011;46285;45.122;20.726;2023-06-04T06:38:39;12.13;;;3.72;;
60430;SDS011;46285;45.122;20.726;2023-06-04T06:48:40;10.73;;;3.63;;
60430;SDS011;46285;45.122;20.726;2023-06-04T06:58:44;10.88;;;3.83;;
60430;SDS011;46285;45.122;20.726;2023-06-04T07:08:46;9.90;;;3.25;;
60430;SDS011;46285;45.122;20.726;2023-06-04T07:18:48;7.75;;;2.90;;
60430;SDS011;46285;45.122;20.726;2023-06-04T07:28:49;10.60;;;4.20;;
60430;SDS011;46285;45.122;20.726;2023-06-04T07:38:50;11.00;;;4.22;;
60430;SDS011;46285;45.122;20.726;2023-06-04T07:48:51;12.13;;;2.70;;
60430;SDS011;46285;45.122;20.726;2023-06-04T07:58:53;11.75;;;3.55;;
60430;SDS011;46285;45.122;20.726;2023-06-04T08:08:54;11.30;;;3.63;;
60430;SDS011;46285;45.122;20.726;2023-06-04T08:18:57;10.47;;;3.10;;
60430;SDS011;46285;45.122;20.726;2023-06-04T08:28:58;13.20;;;3.25;;
60430;SDS011;46285;45.122;20.726;2023-06-04T08:38:59;10.65;;;2.42;;
60430;SDS011;46285;45.122;20.726;2023-06-04T08:49:00;9.23;;;2.97;;
60430;SDS011;46285;45.122;20.726;2023-06-04T08:59:05;8.65;;;3.17;;
60430;SDS011;46285;45.122;20.726;2023-06-04T09:09:08;11.07;;;3.30;;
60430;SDS011;46285;45.122;20.726;2023-06-04T09:19:10;9.80;;;3.03;;
60430;SDS011;46285;45.122;20.726;2023-06-04T09:29:11;9.60;;;2.78;;
60430;SDS011;46285;45.122;20.726;2023-06-04T09:39:16;9.82;;;2.50;;
60430;SDS011;46285;45.122;20.726;2023-06-04T09:49:17;12.55;;;3.65;;
60430;SDS011;46285;45.122;20.726;2023-06-04T09:59:18;9.38;;;2.65;;
60430;SDS011;46285;45.122;20.726;2023-06-04T10:09:20;6.88;;;2.00;;
60430;SDS011;46285;45.122;20.726;2023-06-04T10:19:21;10.05;;;2.97;;
60430;SDS011;46285;45.122;20.726;2023-06-04T10:29:22;5.40;;;2.08;;
60430;SDS011;46285;45.122;20.726;2023-06-04T10:39:27;8.93;;;2.30;;
60430;SDS011;46285;45.122;20.726;2023-06-04T10:49:29;5.53;;;2.45;;
60430;SDS011;46285;45.122;20.726;2023-06-04T11:20:07;6.55;;;2.00;;
60430;SDS011;46285;45.122;20.726;2023-06-04T11:30:16;6.50;;;2.17;;
60430;SDS011;46285;45.122;20.726;2023-06-04T11:40:18;5.22;;;2.05;;
60430;SDS011;46285;45.122;20.726;2023-06-04T11:50:19;6.95;;;2.55;;
60430;SDS011;46285;45.122;20.726;2023-06-04T12:00:21;5.95;;;1.90;;
60430;SDS011;46285;45.122;20.726;2023-06-04T12:10:22;4.75;;;1.90;;
60430;SDS011;46285;45.122;20.726;2023-06-04T12:20:38;7.13;;;1.92;;
60430;SDS011;46285;45.122;20.726;2023-06-04T12:30:41;4.30;;;1.60;;
60430;SDS011;46285;45.122;20.726;2023-06-04T12:40:42;7.95;;;1.88;;
60430;SDS011;46285;45.122;20.726;2023-06-04T12:50:44;7.57;;;2.10;;
60430;SDS011;46285;45.122;20.726;2023-06-04T13:00:46;5.40;;;1.70;;
60430;SDS011;46285;45.122;20.726;2023-06-04T13:10:47;5.25;;;1.85;;
60430;SDS011;46285;45.122;20.726;2023-06-04T13:20:48;3.00;;;1.00;;
60430;SDS011;46285;45.122;20.726;2023-06-04T13:30:50;3.20;;;1.13;;
60430;SDS011;46285;45.122;20.726;2023-06-04T13:40:52;6.60;;;1.50;;
60430;SDS011;46285;45.122;20.726;2023-06-04T13:50:53;4.70;;;1.33;;
60430;SDS011;46285;45.122;20.726;2023-06-04T14:00:54;5.68;;;1.77;;
60430;SDS011;46285;45.122;20.726;2023-06-04T14:10:55;3.55;;;1.23;;
60430;SDS011;46285;45.122;20.726;2023-06-04T14:20:59;5.57;;;1.20;;
60430;SDS011;46285;45.122;20.726;2023-06-04T14:31:00;6.53;;;1.10;;
60430;SDS011;46285;45.122;20.726;2023-06-04T14:41:02;5.43;;;1.33;;
60430;SDS011;46285;45.122;20.726;2023-06-04T14:51:03;3.40;;;1.23;;
60430;SDS011;46285;45.122;20.726;2023-06-04T15:01:04;3.83;;;1.30;;
60430;SDS011;46285;45.122;20.726;2023-06-04T15:11:05;4.75;;;1.20;;
60430;SDS011;46285;45.122;20.726;2023-06-04T15:21:06;2.85;;;0.88;;
60430;SDS011;46285;45.122;20.726;2023-06-04T15:31:07;4.13;;;1.17;;
60430;SDS011;46285;45.122;20.726;2023-06-04T15:41:10;6.80;;;1.38;;
60430;SDS011;46285;45.122;20.726;2023-06-04T15:51:11;4.35;;;1.13;;
60430;SDS011;46285;45.122;20.726;2023-06-04T16:01:13;4.68;;;1.15;;
60430;SDS011;46285;45.122;20.726;2023-06-04T16:11:14;5.00;;;2.15;;
60430;SDS011;46285;45.122;20.726;2023-06-04T16:21:16;6.60;;;1.15;;
60430;SDS011;46285;45.122;20.726;2023-06-04T16:31:17;8.80;;;1.90;;
60430;SDS011;46285;45.122;20.726;2023-06-04T16:41:18;4.75;;;1.60;;
60430;SDS011;46285;45.122;20.726;2023-06-04T16:51:19;4.68;;;1.13;;
60430;SDS011;46285;45.122;20.726;2023-06-04T17:01:20;4.13;;;1.65;;
60430;SDS011;46285;45.122;20.726;2023-06-04T17:11:22;5.85;;;1.52;;
60430;SDS011;46285;45.122;20.726;2023-06-04T17:21:23;4.97;;;1.83;;
60430;SDS011;46285;45.122;20.726;2023-06-04T17:31:24;6.70;;;2.03;;
60430;SDS011;46285;45.122;20.726;2023-06-04T17:41:25;4.85;;;1.83;;
60430;SDS011;46285;45.122;20.726;2023-06-04T17:51:26;5.18;;;1.90;;
60430;SDS011;46285;45.122;20.726;2023-06-04T18:01:28;6.55;;;2.00;;
60430;SDS011;46285;45.122;20.726;2023-06-04T18:11:29;5.28;;;2.08;;
60430;SDS011;46285;45.122;20.726;2023-06-04T18:21:30;6.57;;;2.50;;
60430;SDS011;46285;45.122;20.726;2023-06-04T18:31:31;5.82;;;2.67;;
60430;SDS011;46285;45.122;20.726;2023-06-04T18:41:32;6.82;;;2.00;;
60430;SDS011;46285;45.122;20.726;2023-06-04T18:51:35;5.55;;;2.22;;
60430;SDS011;46285;45.122;20.726;2023-06-04T19:01:38;15.82;;;2.75;;
60430;SDS011;46285;45.122;20.726;2023-06-04T19:11:40;6.28;;;2.42;;
60430;SDS011;46285;45.122;20.726;2023-06-04T19:21:41;5.88;;;1.98;;
60430;SDS011;46285;45.122;20.726;2023-06-04T19:31:42;7.28;;;2.63;;
60430;SDS011;46285;45.122;20.726;2023-06-04T19:41:43;8.68;;;2.63;;
60430;SDS011;46285;45.122;20.726;2023-06-04T19:51:44;9.13;;;3.08;;
60430;SDS011;46285;45.122;20.726;2023-06-04T20:01:45;7.43;;;3.13;;
60430;SDS011;46285;45.122;20.726;2023-06-04T20:11:47;6.50;;;2.60;;
60430;SDS011;46285;45.122;20.726;2023-06-04T20:21:48;5.72;;;2.70;;
60430;SDS011;46285;45.122;20.726;2023-06-04T20:31:49;6.93;;;2.97;;
60430;SDS011;46285;45.122;20.726;2023-06-04T20:41:50;11.05;;;3.50;;
60430;SDS011;46285;45.122;20.726;2023-06-04T20:51:51;7.50;;;3.28;;
60430;SDS011;46285;45.122;20.726;2023-06-04T21:01:52;9.43;;;3.40;;
60430;SDS011;46285;45.122;20.726;2023-06-04T21:11:54;6.47;;;2.92;;
60430;SDS011;46285;45.122;20.726;2023-06-04T21:21:55;7.95;;;3.53;;
60430;SDS011;46285;45.122;20.726;2023-06-04T21:31:56;8.95;;;3.00;;
60430;SDS011;46285;45.122;20.726;2023-06-04T21:41:57;6.82;;;3.20;;
60430;SDS011;46285;45.122;20.726;2023-06-04T21:51:58;6.63;;;3.03;;
60430;SDS011;46285;45.122;20.726;2023-06-04T22:01:59;8.70;;;3.33;;
60430;SDS011;46285;45.122;20.726;2023-06-04T22:12:00;8.48;;;3.38;;
60430;SDS011;46285;45.122;20.726;2023-06-04T22:22:01;6.88;;;3.03;;
60430;SDS011;46285;45.122;20.726;2023-06-04T22:32:03;6.40;;;3.25;;
60430;SDS011;46285;45.122;20.726;2023-06-04T22:42:04;7.55;;;3.75;;
60430;SDS011;46285;45.122;20.726;2023-06-04T22:52:05;6.38;;;3.22;;
60430;SDS011;46285;45.122;20.726;2023-06-04T23:02:06;8.65;;;3.78;;
60430;SDS011;46285;45.122;20.726;2023-06-04T23:12:08;7.22;;;3.13;;
60430;SDS011;46285;45.122;20.726;2023-06-04T23:22:09;11.63;;;4.00;;
60430;SDS011;46285;45.122;20.726;2023-06-04T23:32:10;7.78;;;3.90;;
60430;SDS011;46285;45.122;20.726;2023-06-04T23:42:12;7.80;;;3.63;;
60430;SDS011;46285;45.122;20.726;2023-06-04T23:52:13;9.23;;;4.15;;
